Time;durP1;ratioP1;P1;durP2;ratioP2;P2;SDS_P1;SDS_P2;PMS_P1;PMS_P2;Temp;Humidity;BMP_temperature;BMP_pressure;BME280_temperature;BME280_humidity;BME280_pressure;Samples;Min_cycle;Max_cycle;Signal;HPM_P1;HPM_P2
2021/12/16 11:07:50;;;;;;;33.00;25.97;;;;;;;9.36;100.00;103667.03;5298421;27;20839;-81
2021/12/16 11:10:29;;;;;;;42.50;28.10;;;;;;;9.41;100.00;103675.72;5242248;27;20404;-79
2021/12/16 11:13:03;;;;;;;42.27;28.40;;;;;;;9.49;100.00;103675.66;5243059;27;20049;-78
2021/12/16 11:15:38;;;;;;;39.05;26.73;;;;;;;9.57;100.00;103659.88;5242806;27;20022;-83
2021/12/16 11:18:20;;;;;;;37.97;27.50;;;;;;;9.70;100.00;103670.22;5237749;27;20026;-76
2021/12/16 11:21:04;;;;;;;38.37;28.10;;;;;;;9.77;100.00;103677.13;5243598;27;20411;-83
2021/12/16 11:23:40;;;;;;;36.20;24.58;;;;;;;9.85;100.00;103685.75;5243627;27;20021;-83
2021/12/16 11:26:18;;;;;;;38.10;26.63;;;;;;;9.88;99.63;103670.00;5248387;27;20479;-81
2021/12/16 11:28:53;;;;;;;41.67;25.30;;;;;;;9.93;99.56;103678.66;5331284;27;20023;-81
2021/12/16 11:31:29;;;;;;;26.80;21.33;;;;;;;9.95;99.03;103669.94;5278327;27;20077;-83
2021/12/16 11:34:06;;;;;;;28.57;20.77;;;;;;;9.99;97.83;103687.34;5243448;27;20029;-79
2021/12/16 11:36:44;;;;;;;30.03;19.87;;;;;;;10.03;98.48;103678.56;5240893;27;20029;-84
2021/12/16 11:39:27;;;;;;;26.43;19.60;;;;;;;10.02;98.84;103671.59;5242292;27;20044;-78
2021/12/16 11:42:02;;;;;;;27.77;21.60;;;;;;;9.95;99.23;103678.66;5238637;27;20447;-78
2021/12/16 11:44:42;;;;;;;28.37;22.27;;;;;;;9.97;99.21;103681.25;5246452;27;20034;-80
2021/12/16 11:47:21;;;;;;;27.43;20.60;;;;;;;9.98;98.97;103662.06;5239943;27;20041;-81
2021/12/16 11:50:00;;;;;;;27.43;21.17;;;;;;;10.03;98.73;103670.72;5305859;27;20079;-85
2021/12/16 11:52:37;;;;;;;30.50;21.53;;;;;;;10.17;99.23;103665.31;5242210;27;20464;-80
2021/12/16 11:55:15;;;;;;;30.97;21.47;;;;;;;10.25;98.93;103667.81;5242890;27;20034;-79
2021/12/16 11:57:52;;;;;;;29.27;19.77;;;;;;;10.36;97.59;103671.19;5260863;27;20033;-81
2021/12/16 12:00:29;;;;;;;26.00;19.37;;;;;;;10.46;97.76;103671.91;5273737;27;20042;-81
2021/12/16 12:03:04;;;;;;;27.93;19.67;;;;;;;10.51;97.62;103667.50;5293076;27;20078;-81
2021/12/16 12:05:42;;;;;;;28.63;19.87;;;;;;;10.54;97.62;103664.00;5242638;27;20082;-79
2021/12/16 12:08:23;;;;;;;27.17;17.37;;;;;;;10.53;95.77;103657.00;5239590;27;20021;-79
2021/12/16 12:11:06;;;;;;;30.83;18.23;;;;;;;10.57;96.10;103663.94;5243968;27;20021;-85
2021/12/16 12:13:40;;;;;;;23.53;17.80;;;;;;;10.59;96.04;103662.16;5244053;27;20101;-81
2021/12/16 12:16:25;;;;;;;25.05;17.17;;;;;;;10.63;95.65;103658.59;5223854;27;20417;-82
2021/12/16 12:19:14;;;;;;;23.50;16.23;;;;;;;10.71;95.99;103660.25;5217643;28;20371;-80
2021/12/16 12:22:00;;;;;;;25.40;17.20;;;;;;;10.65;94.94;103662.06;5228755;28;20029;-81
2021/12/16 12:24:46;;;;;;;20.67;13.80;;;;;;;10.63;95.62;103662.97;5260545;27;20020;-81
2021/12/16 12:27:25;;;;;;;22.53;15.17;;;;;;;10.59;95.24;103662.16;5265891;27;20037;-76
2021/12/16 12:29:59;;;;;;;21.03;14.73;;;;;;;10.49;95.24;103650.09;5228135;28;20078;-78
2021/12/16 12:32:33;;;;;;;;;;;;;;;10.72;96.13;103659.34;5228411;28;20086;-81
2021/12/16 12:35:12;;;;;;;23.10;15.80;;;;;;;10.55;94.46;103656.97;5228237;27;19925;-83
2021/12/16 12:37:47;;;;;;;20.33;16.53;;;;;;;10.37;95.52;103645.81;5289684;27;20403;-79
2021/12/16 12:40:25;;;;;;;22.97;16.70;;;;;;;10.45;95.11;103653.59;5275770;27;20033;-72
2021/12/16 12:42:57;;;;;;;24.60;16.47;;;;;;;10.30;95.05;103650.28;5235264;27;20057;-78
2021/12/16 12:45:34;;;;;;;26.47;16.30;;;;;;;10.28;94.86;103652.94;5227307;28;20030;-76
2021/12/16 12:48:12;;;;;;;20.80;15.43;;;;;;;10.38;94.24;103653.69;5223403;28;20037;-78
2021/12/16 12:50:46;;;;;;;22.77;15.87;;;;;;;10.38;94.26;103658.94;5227577;28;20026;-79
2021/12/16 12:53:19;;;;;;;;;;;;;;;10.54;95.12;103658.75;5228342;28;20025;-78
2021/12/16 12:55:56;;;;;;;25.20;16.37;;;;;;;10.41;93.76;103653.63;5229225;28;20664;-77
2021/12/16 12:58:29;;;;;;;24.00;15.87;;;;;;;10.30;94.14;103655.53;5225453;27;20454;-77
2021/12/16 13:01:04;;;;;;;30.80;17.40;;;;;;;10.52;94.02;103647.41;5225229;28;20031;-76
2021/12/16 13:03:39;;;;;;;20.63;15.43;;;;;;;10.66;93.96;103641.97;5226125;28;20425;-82
2021/12/16 13:06:13;;;;;;;23.00;15.87;;;;;;;10.86;94.39;103649.50;5228902;27;20069;-82
2021/12/16 13:08:49;;;;;;;24.30;16.60;;;;;;;11.04;93.58;103649.22;5228104;27;20021;-82
2021/12/16 13:11:28;;;;;;;20.50;14.50;;;;;;;11.06;92.13;103643.09;5229028;28;20024;-82
2021/12/16 13:14:20;;;;;;;20.50;14.97;;;;;;;11.10;91.90;103650.00;5226032;28;20030;-83
2021/12/16 13:17:20;;;;;;;24.53;16.50;;;;;;;11.07;91.22;103650.06;5254681;27;20027;-83
2021/12/16 13:32:30;;;;;;;26.73;14.00;;;;;;;10.86;89.57;103649.50;5224902;28;20037;-76
2021/12/16 13:34:51;;;;;;;22.93;13.40;;;;;;;10.68;89.08;103644.56;5234474;28;20101;-77
2021/12/16 13:37:29;;;;;;;18.70;13.07;;;;;;;10.71;89.73;103649.75;5226495;27;20496;-81
2021/12/16 13:40:31;;;;;;;18.87;12.90;;;;;;;10.67;90.66;103641.06;5227063;28;20475;-78
2021/12/16 13:43:25;;;;;;;20.93;12.80;;;;;;;10.53;90.63;103646.50;5225681;28;20491;-81
2021/12/16 13:46:16;;;;;;;20.83;12.83;;;;;;;10.39;91.81;103657.16;5225379;27;20457;-81
2021/12/16 13:58:11;;;;;;;21.17;13.30;;;;;;;10.51;92.21;103650.91;5226139;28;20035;-79
2021/12/16 14:01:10;;;;;;;20.27;14.80;;;;;;;10.36;91.40;103644.97;5224479;28;20407;-78
2021/12/16 14:03:48;;;;;;;20.00;13.07;;;;;;;10.38;91.13;103653.69;5226342;28;20064;-78
2021/12/16 14:06:51;;;;;;;22.63;14.30;;;;;;;10.43;91.64;103656.25;5208738;28;20128;-78
2021/12/16 14:09:30;;;;;;;21.23;13.53;;;;;;;10.28;92.22;103652.09;5240982;28;20157;-80
2021/12/16 14:18:03;;;;;;;20.80;14.07;;;;;;;10.30;92.39;103663.38;5223727;27;20367;-74
2021/12/16 14:23:46;;;;;;;24.57;13.63;;;;;;;10.13;92.14;103664.47;5226575;28;20033;-73
2021/12/16 14:26:49;;;;;;;20.10;14.40;;;;;;;10.12;92.33;103659.25;5209637;28;20064;-79
2021/12/16 14:33:21;;;;;;;19.53;13.10;;;;;;;10.03;93.25;103650.66;5251550;27;20074;-82
2021/12/16 14:38:37;;;;;;;19.57;13.17;;;;;;;10.12;92.14;103673.19;5281407;27;20021;-79
2021/12/16 14:41:25;;;;;;;17.80;12.97;;;;;;;9.88;92.04;103677.84;5227648;27;20037;-79
2021/12/16 14:49:49;;;;;;;17.90;11.10;;;;;;;9.58;93.07;103679.94;5224970;28;20120;-79
2021/12/16 14:52:24;;;;;;;21.57;11.27;;;;;;;9.76;94.08;103688.44;5225932;28;20496;-80
2021/12/16 14:55:09;;;;;;;19.40;10.37;;;;;;;9.64;93.58;103692.94;5225043;28;20048;-81
2021/12/16 14:57:43;;;;;;;16.65;11.27;;;;;;;9.56;94.03;103687.78;5224299;28;20022;-83
2021/12/16 15:00:47;;;;;;;16.85;11.55;;;;;;;9.58;93.96;103666.84;5226128;28;20018;-82
2021/12/16 15:03:26;;;;;;;18.17;12.03;;;;;;;9.51;94.35;103701.78;5224613;28;20086;-82
2021/12/16 15:06:01;;;;;;;17.40;11.17;;;;;;;9.45;93.93;103694.88;5225605;28;20046;-81
2021/12/16 15:11:17;;;;;;;14.93;10.87;;;;;;;9.29;94.75;103695.00;5227461;28;20030;-77
2021/12/16 15:13:54;;;;;;;19.53;10.93;;;;;;;9.32;94.30;103681.00;5222921;28;20033;-74
2021/12/16 15:16:48;;;;;;;16.07;10.80;;;;;;;9.32;95.05;103691.47;5219488;28;20017;-71
2021/12/16 15:35:44;;;;;;;15.30;10.47;;;;;;;9.26;94.58;103702.00;5214039;28;20037;-74
2021/12/16 15:45:42;;;;;;;20.10;12.07;;;;;;;9.17;95.10;103716.88;5254152;28;20034;-79
2021/12/16 15:48:15;;;;;;;16.92;11.07;;;;;;;9.08;94.98;103714.34;5236764;28;20029;-76
2021/12/16 15:50:53;;;;;;;16.37;10.77;;;;;;;9.17;94.38;103716.00;5232670;28;20037;-76
2021/12/16 15:53:30;;;;;;;17.33;11.53;;;;;;;9.19;95.11;103722.09;5228425;28;20029;-76
2021/12/16 15:56:10;;;;;;;16.13;11.73;;;;;;;9.16;94.81;103722.97;5231263;27;20144;-75
2021/12/16 15:58:50;;;;;;;16.23;11.30;;;;;;;9.27;94.96;103729.88;5266980;27;20062;-77
2021/12/16 16:01:29;;;;;;;19.73;11.30;;;;;;;9.19;94.98;103728.22;5219555;28;20440;-76
2021/12/16 16:04:09;;;;;;;14.13;11.20;;;;;;;9.12;94.95;103723.03;5280052;27;20022;-76
2021/12/16 16:06:45;;;;;;;19.07;11.70;;;;;;;9.11;95.17;103731.75;5233543;27;20073;-77
2021/12/16 16:09:17;;;;;;;20.93;12.57;;;;;;;9.09;95.32;103729.16;5244800;27;20384;-79
2021/12/16 16:11:53;;;;;;;15.47;11.60;;;;;;;9.14;95.23;103743.06;5235137;27;20093;-75
2021/12/16 16:14:27;;;;;;;17.23;11.53;;;;;;;9.10;95.25;103738.72;5250310;27;20025;-76
2021/12/16 16:17:00;;;;;;;19.42;12.90;;;;;;;9.10;94.95;103743.94;5237871;27;20089;-77
2021/12/16 16:19:34;;;;;;;16.07;11.57;;;;;;;8.87;95.68;103744.97;5251913;27;20030;-77
2021/12/16 16:22:07;;;;;;;18.85;12.20;;;;;;;9.01;95.90;103746.63;5229800;27;20026;-79
2021/12/16 16:24:42;;;;;;;18.50;12.10;;;;;;;9.04;95.24;103744.84;5224343;28;20037;-78
2021/12/16 16:27:26;;;;;;;23.20;11.27;;;;;;;9.11;95.92;103734.38;5260146;27;20505;-77
2021/12/16 16:29:59;;;;;;;15.63;11.40;;;;;;;8.94;95.38;103738.81;5232303;27;20483;-75
2021/12/16 16:33:01;;;;;;;18.48;11.15;;;;;;;9.23;95.48;103755.22;5220642;28;20117;-76
2021/12/16 16:35:34;;;;;;;19.50;11.93;;;;;;;9.04;95.68;103757.09;5237603;27;20025;-78
2021/12/16 16:38:36;;;;;;;16.90;11.50;;;;;;;9.19;95.70;103754.38;5283861;27;20018;-80
2021/12/16 16:41:14;;;;;;;17.53;10.70;;;;;;;9.18;95.43;103757.00;5239083;27;20049;-81
2021/12/16 16:44:00;;;;;;;18.07;11.27;;;;;;;9.10;96.07;103756.16;5251295;27;20045;-80
2021/12/16 16:46:45;;;;;;;19.83;11.67;;;;;;;9.17;95.78;103760.47;5240751;27;20088;-79
2021/12/16 16:49:45;;;;;;;18.47;10.93;;;;;;;9.13;95.55;103753.53;5226604;28;20150;-76
2021/12/16 16:52:28;;;;;;;14.83;10.90;;;;;;;9.17;95.49;103766.56;5251918;27;20371;-78
2021/12/16 16:55:06;;;;;;;20.37;12.97;;;;;;;9.20;95.20;103768.28;5277469;27;20033;-78
2021/12/16 16:57:46;;;;;;;21.73;13.33;;;;;;;8.97;95.87;103750.16;5229351;27;20029;-77
2021/12/16 17:00:20;;;;;;;19.77;12.30;;;;;;;9.02;95.41;103753.59;5214940;28;20064;-76
2021/12/16 17:02:54;;;;;;;20.98;13.10;;;;;;;9.09;94.75;103755.31;5227513;27;20069;-78
2021/12/16 17:05:28;;;;;;;22.45;13.68;;;;;;;8.95;94.15;103760.63;5226286;28;20037;-76
2021/12/16 17:08:16;;;;;;;19.80;13.17;;;;;;;8.91;94.86;103761.50;5228444;27;20038;-81
2021/12/16 17:10:50;;;;;;;18.03;13.13;;;;;;;8.61;94.89;103759.03;5226903;28;20025;-81
2021/12/16 17:13:43;;;;;;;21.10;13.67;;;;;;;8.75;94.02;103758.09;5234620;27;20022;-80
2021/12/16 17:19:28;;;;;;;18.87;12.60;;;;;;;8.55;94.41;103764.25;5229267;28;20034;-83
2021/12/16 17:22:02;;;;;;;22.93;14.30;;;;;;;8.34;93.83;103759.09;5226338;28;20037;-83
2021/12/16 17:24:33;;;;;;;23.17;12.70;;;;;;;8.58;93.63;103762.53;5226659;28;20032;-77
2021/12/16 17:27:08;;;;;;;18.60;13.23;;;;;;;8.54;92.88;103759.91;5228680;28;20034;-81
2021/12/16 17:29:46;;;;;;;22.83;14.85;;;;;;;8.52;93.22;103769.50;5226124;28;20089;-82
2021/12/16 17:32:24;;;;;;;18.20;12.40;;;;;;;8.45;93.34;103760.78;5221991;28;20017;-81
2021/12/16 17:35:11;;;;;;;18.57;13.80;;;;;;;8.43;93.46;103773.88;5228521;28;20025;-81
2021/12/16 17:37:50;;;;;;;19.27;13.87;;;;;;;8.35;92.54;103775.63;5226813;27;20069;-77
2021/12/16 17:40:37;;;;;;;18.13;13.93;;;;;;;8.16;92.97;103775.69;5228528;27;20026;-77
2021/12/16 17:43:18;;;;;;;20.77;14.60;;;;;;;8.11;93.31;103785.28;5236559;27;20509;-82
2021/12/16 17:45:57;;;;;;;23.67;15.07;;;;;;;8.20;92.54;103780.03;5300591;27;20574;-82
2021/12/16 17:48:33;;;;;;;23.87;16.53;;;;;;;8.01;93.02;103770.50;5224443;28;20026;-82
2021/12/16 17:51:19;;;;;;;21.37;15.27;;;;;;;8.01;93.37;103773.13;5225685;28;20409;-82
2021/12/16 17:53:59;;;;;;;26.67;15.20;;;;;;;8.14;92.38;103777.44;5225493;28;20029;-80
2021/12/16 17:56:32;;;;;;;23.77;14.37;;;;;;;7.96;92.44;103788.75;5235029;27;20502;-81
2021/12/16 17:59:08;;;;;;;22.13;15.13;;;;;;;8.02;92.61;103788.78;5225720;28;20036;-78
2021/12/16 18:01:45;;;;;;;18.47;15.47;;;;;;;7.96;92.60;103802.69;5232199;27;20036;-82
2021/12/16 18:04:22;;;;;;;22.03;15.60;;;;;;;7.90;92.66;103802.72;5226812;27;20032;-75
2021/12/16 18:07:00;;;;;;;18.77;14.70;;;;;;;7.87;92.73;103797.50;5223765;28;20038;-79
2021/12/16 18:09:36;;;;;;;25.87;15.70;;;;;;;7.97;92.82;103801.84;5225752;28;20029;-78
2021/12/16 18:12:14;;;;;;;23.63;15.27;;;;;;;7.90;92.55;103797.50;5228150;27;20027;-79
2021/12/16 18:15:03;;;;;;;20.10;13.63;;;;;;;7.87;93.31;103789.66;5223363;28;20033;-82
2021/12/16 18:17:44;;;;;;;20.73;14.87;;;;;;;7.82;93.09;103807.06;5223882;28;20064;-79
2021/12/16 18:20:22;;;;;;;20.93;15.13;;;;;;;7.98;92.55;103808.78;5218369;28;20040;-79
2021/12/16 18:22:57;;;;;;;21.47;16.63;;;;;;;7.90;93.11;103807.06;5251525;27;20113;-80
2021/12/16 18:25:40;;;;;;;23.20;15.33;;;;;;;7.95;92.55;103813.13;5226911;28;20026;-82
2021/12/16 18:28:34;;;;;;;18.70;15.03;;;;;;;7.98;92.89;103807.91;5221118;28;20037;-78
2021/12/16 18:31:08;;;;;;;24.10;16.00;;;;;;;7.72;92.76;103812.28;5224453;28;20021;-80
2021/12/16 18:33:44;;;;;;;23.80;15.63;;;;;;;7.79;92.99;103813.13;5256038;27;20049;-87
2021/12/16 18:36:20;;;;;;;22.73;16.17;;;;;;;7.81;93.04;103806.19;5232517;27;20098;-84
2021/12/16 18:39:04;;;;;;;23.80;15.30;;;;;;;7.86;92.22;103820.09;5226428;28;20078;-86
2021/12/16 18:41:49;;;;;;;20.27;14.98;;;;;;;7.86;92.85;103821.84;5237707;27;20037;-83
2021/12/16 18:44:46;;;;;;;22.30;16.43;;;;;;;7.95;92.87;103823.56;5252698;27;20014;-78
2021/12/16 18:47:45;;;;;;;20.93;15.30;;;;;;;7.89;92.83;103823.59;5223967;28;20042;-78
2021/12/16 18:50:36;;;;;;;27.37;15.87;;;;;;;7.78;93.03;103816.63;5211359;28;20063;-78
2021/12/16 18:55:56;;;;;;;20.17;15.23;;;;;;;7.78;94.34;103834.03;5225920;27;20030;-76
2021/12/16 18:58:28;;;;;;;25.17;17.30;;;;;;;7.58;94.55;103827.91;5224285;28;20034;-80
2021/12/16 19:01:06;;;;;;;21.90;15.03;;;;;;;7.87;94.01;103821.84;5225437;28;20029;-78
2021/12/16 19:03:42;;;;;;;22.93;15.50;;;;;;;7.77;93.89;103814.03;5225187;27;20018;-79
2021/12/16 19:06:18;;;;;;;20.10;15.57;;;;;;;7.75;94.34;103827.94;5213616;28;20038;-81
2021/12/16 19:08:50;;;;;;;23.10;16.87;;;;;;;7.87;93.99;103821.84;5224830;28;20025;-83
2021/12/16 19:11:24;;;;;;;25.00;15.87;;;;;;;7.95;93.80;103827.06;5231438;27;20033;-82
2021/12/16 19:13:56;;;;;;;24.13;17.50;;;;;;;7.96;93.53;103814.88;5230037;28;20022;-78
2021/12/16 19:16:27;;;;;;;24.97;17.27;;;;;;;7.86;93.93;103829.66;5222235;28;21266;-88
2021/12/16 19:18:59;;;;;;;23.27;17.10;;;;;;;7.94;93.48;103825.31;5221303;28;20013;-82
2021/12/16 19:21:31;;;;;;;28.90;17.90;;;;;;;7.58;94.42;103827.03;5225155;28;20078;-78
2021/12/16 19:24:04;;;;;;;23.97;18.17;;;;;;;7.90;93.59;103840.97;5223694;28;20158;-73
2021/12/16 19:26:39;;;;;;;21.57;17.13;;;;;;;7.87;93.92;103836.63;5223475;28;20031;-78
2021/12/16 19:29:11;;;;;;;25.90;17.48;;;;;;;7.81;94.09;103826.19;5224894;28;20754;-78
2021/12/16 19:31:43;;;;;;;24.97;16.47;;;;;;;7.78;93.91;103828.81;5225751;28;20029;-76
2021/12/16 19:34:16;;;;;;;26.63;17.37;;;;;;;7.82;93.65;103828.78;5225758;27;20441;-78
2021/12/16 19:36:50;;;;;;;20.60;16.47;;;;;;;7.84;93.55;103837.50;5226161;27;20045;-78
2021/12/16 19:39:25;;;;;;;22.52;16.73;;;;;;;7.66;93.37;103835.75;5227110;28;20356;-78
2021/12/16 19:41:56;;;;;;;26.02;17.80;;;;;;;7.74;93.11;103830.53;5225269;28;20026;-84
2021/12/16 19:44:28;;;;;;;25.17;16.90;;;;;;;7.72;92.99;103829.66;5229747;27;20515;-80
2021/12/16 19:46:59;;;;;;;28.17;18.80;;;;;;;7.68;92.67;103826.19;5231138;27;20127;-81
2021/12/16 19:49:31;;;;;;;26.13;16.47;;;;;;;7.56;93.17;103831.38;5226480;28;20041;-79
2021/12/16 19:52:04;;;;;;;24.77;17.07;;;;;;;7.62;92.78;103831.41;5226884;27;20037;-80
2021/12/16 19:54:35;;;;;;;25.10;18.70;;;;;;;7.59;93.08;103842.69;5229556;27;20026;-81
2021/12/16 19:57:10;;;;;;;29.10;17.37;;;;;;;7.59;92.81;103837.47;5226309;27;20565;-83
2021/12/16 19:59:41;;;;;;;;;;;;;;;7.81;92.87;103842.72;5229386;28;20112;-84
2021/12/16 20:02:16;;;;;;;25.27;17.80;;;;;;;7.52;91.99;103838.34;5233539;27;19917;-82
2021/12/16 20:04:47;;;;;;;;;;;;;;;7.73;92.61;103842.69;5232821;27;20380;-82
2021/12/16 20:07:22;;;;;;;30.13;17.57;;;;;;;7.52;92.16;103847.91;5232929;27;19966;-77
2021/12/16 20:09:54;;;;;;;26.17;18.93;;;;;;;7.37;92.08;103841.78;5234247;27;20709;-82
2021/12/16 20:12:30;;;;;;;34.07;20.90;;;;;;;7.33;92.70;103845.28;5225659;27;20748;-81
2021/12/16 20:15:09;;;;;;;28.97;19.63;;;;;;;7.16;92.66;103840.88;5233287;27;20040;-81
2021/12/16 20:17:41;;;;;;;27.27;19.47;;;;;;;7.20;92.66;103850.44;5236199;27;20685;-83
2021/12/16 20:20:20;;;;;;;28.83;19.10;;;;;;;7.31;92.41;103844.38;5235157;28;20073;-85
2021/12/16 20:22:52;;;;;;;25.97;18.20;;;;;;;7.32;91.75;103849.59;5237451;28;20021;-83
2021/12/16 20:25:33;;;;;;;27.83;18.40;;;;;;;7.13;92.45;103839.13;5241242;27;20048;-82
2021/12/16 20:28:16;;;;;;;28.80;17.97;;;;;;;7.17;91.68;103855.66;5232967;27;20025;-79
2021/12/16 20:30:52;;;;;;;26.80;19.37;;;;;;;6.92;91.67;103865.97;5227745;28;20033;-88
2021/12/16 20:33:30;;;;;;;26.17;18.50;;;;;;;7.10;92.27;103875.59;5230357;28;20034;-78
2021/12/16 20:36:07;;;;;;;31.17;19.10;;;;;;;7.06;92.23;103870.38;5232578;28;20040;-93
2021/12/16 20:38:52;;;;;;;27.50;19.63;;;;;;;6.94;91.99;103860.75;5232927;28;20445;-83
2021/12/16 20:41:28;;;;;;;27.42;18.83;;;;;;;7.08;91.90;103877.34;5235568;27;20040;-85
2021/12/16 20:44:06;;;;;;;29.13;20.47;;;;;;;6.75;92.65;103874.59;5232404;28;20392;-85
2021/12/16 20:46:39;;;;;;;29.63;19.70;;;;;;;6.65;94.05;103873.66;5232097;28;20040;-90
2021/12/16 20:49:14;;;;;;;24.87;17.53;;;;;;;6.89;93.05;103881.59;5227561;28;20037;-86
2021/12/16 20:52:03;;;;;;;29.17;19.70;;;;;;;6.85;93.83;103885.03;5212805;28;20103;-87
2021/12/16 20:54:37;;;;;;;30.27;18.87;;;;;;;6.86;92.83;103876.38;5226832;28;20030;-80
2021/12/16 20:57:11;;;;;;;27.50;18.92;;;;;;;6.85;92.15;103879.81;5226842;28;20546;-81
2021/12/16 20:59:43;;;;;;;27.40;19.40;;;;;;;6.60;92.52;103864.06;5227626;28;20025;-81
2021/12/16 21:02:18;;;;;;;29.53;19.13;;;;;;;6.76;91.88;103859.81;5232558;28;20037;-80
2021/12/16 21:04:50;;;;;;;32.43;20.90;;;;;;;6.60;92.11;103877.06;5227674;28;20029;-85
2021/12/16 21:07:21;;;;;;;24.83;19.17;;;;;;;6.74;92.26;103872.84;5228672;28;20140;-84
2021/12/16 21:09:54;;;;;;;27.90;19.23;;;;;;;6.60;91.98;103864.94;5244018;27;20030;-87
2021/12/16 21:12:26;;;;;;;28.37;19.60;;;;;;;6.54;93.04;103864.91;5228555;28;20556;-81
2021/12/16 21:14:58;;;;;;;27.93;21.13;;;;;;;6.58;92.41;103868.41;5225159;27;20033;-80
2021/12/16 21:17:30;;;;;;;28.57;20.50;;;;;;;6.63;92.45;103870.16;5229664;27;20037;-76
2021/12/16 21:20:04;;;;;;;33.03;21.23;;;;;;;6.58;92.90;103876.22;5226854;28;20049;-80
2021/12/16 21:22:36;;;;;;;32.42;23.65;;;;;;;6.57;92.84;103870.13;5227266;28;20037;-83
2021/12/16 21:25:09;;;;;;;32.80;22.47;;;;;;;6.55;94.62;103858.84;5222060;28;20040;-83
2021/12/16 21:27:42;;;;;;;33.60;22.63;;;;;;;6.73;93.82;103868.50;5226248;28;20698;-82
2021/12/16 21:30:16;;;;;;;30.23;21.47;;;;;;;6.73;93.45;103865.88;5225331;28;20040;-90
2021/12/16 21:32:48;;;;;;;33.22;23.83;;;;;;;6.69;93.12;103871.94;5231806;28;20025;-90
2021/12/16 21:35:23;;;;;;;32.13;23.33;;;;;;;6.75;93.76;103877.19;5233175;28;20062;-94
2021/12/16 21:37:58;;;;;;;31.00;22.37;;;;;;;6.64;94.60;103878.84;5227785;28;20036;-94
2021/12/16 21:40:35;;;;;;;36.00;22.90;;;;;;;6.64;96.03;103884.94;5323014;27;20041;-93
2021/12/16 21:43:09;;;;;;;41.27;25.83;;;;;;;6.72;95.43;103890.19;5231889;28;20500;-91
2021/12/16 21:45:41;;;;;;;39.67;26.43;;;;;;;6.51;95.85;103870.97;5225445;28;20053;-92
2021/12/16 21:48:12;;;;;;;41.97;25.30;;;;;;;6.72;95.76;103884.97;5228307;28;20018;-87
2021/12/16 21:50:46;;;;;;;61.27;29.17;;;;;;;6.52;96.88;103872.72;5226586;28;20471;-88
2021/12/16 21:53:20;;;;;;;60.88;31.52;;;;;;;6.62;97.17;103899.69;5226643;28;20033;-80
2021/12/16 21:55:54;;;;;;;46.92;29.30;;;;;;;6.85;97.18;103895.47;5225105;28;20029;-78
2021/12/16 21:58:30;;;;;;;48.05;30.40;;;;;;;6.82;97.76;103880.69;5226745;28;20489;-88
2021/12/16 22:01:02;;;;;;;40.90;28.90;;;;;;;6.92;97.46;103881.59;5224715;28;20025;-83
2021/12/16 22:03:38;;;;;;;39.67;27.80;;;;;;;6.89;97.49;103859.00;5225335;28;20098;-83
